Time;durP1;ratioP1;P1;durP2;ratioP2;P2;SDS_P1;SDS_P2;PMS_P1;PMS_P2;Temp;Humidity;BMP_temperature;BMP_pressure;BME280_temperature;BME280_humidity;BME280_pressure;Samples;Min_cycle;Max_cycle;Signal;HPM_P1;HPM_P2
2022/12/06 00:02:28;;;;;;;;;;;;;;;2.07;100.00;95831.75;10534645;28;2983;-69
2022/12/06 00:07:31;;;;;;;;;;;;;;;2.05;100.00;95833.81;10532065;28;3017;-69
2022/12/06 00:12:35;;;;;;;;;;;;;;;1.93;100.00;95845.34;10519777;28;3007;-69
2022/12/06 00:17:38;;;;;;;;;;;;;;;1.91;100.00;95856.19;10524565;28;3124;-69
2022/12/06 00:22:45;;;;;;;;;;;;;;;1.86;100.00;95859.47;10520850;28;2959;-70
2022/12/06 00:27:48;;;;;;;;;;;;;;;1.84;100.00;95868.66;10516467;28;3062;-69
2022/12/06 00:32:51;;;;;;;;;;;;;;;1.85;100.00;95865.00;10524830;28;3038;-69
2022/12/06 00:37:54;;;;;;;;;;;;;;;1.80;100.00;95856.88;10508167;28;3058;-68
2022/12/06 00:42:57;;;;;;;;;;;;;;;1.71;100.00;95858.97;10532298;28;3039;-68
2022/12/06 00:48:09;;;;;;;;;;;;;;;1.65;100.00;95848.44;10510134;28;2978;-68
2022/12/06 00:53:12;;;;;;;;;;;;;;;1.65;100.00;95851.06;10519448;28;3013;-70
2022/12/06 00:58:18;;;;;;;;;;;;;;;1.66;100.00;95845.59;10515438;28;2975;-68
2022/12/06 01:03:21;;;;;;;;;;;;;;;1.78;100.00;95853.63;10523377;28;2653;-67
2022/12/06 01:08:24;;;;;;;;;;;;;;;1.80;100.00;95839.13;10521522;28;3038;-69
2022/12/06 01:13:28;;;;;;;;;;;;;;;1.81;100.00;95835.47;10505037;28;3080;-68
2022/12/06 01:18:31;;;;;;;;;;;;;;;1.86;100.00;95826.88;10516267;28;3054;-70
2022/12/06 01:23:35;;;;;;;;;;;;;;;1.88;100.00;95838.06;10498211;28;3065;-68
2022/12/06 01:28:38;;;;;;;;;;;;;;;1.85;100.00;95822.59;10518705;28;3026;-69
2022/12/06 01:33:42;;;;;;;;;;;;;;;1.68;100.00;95819.66;10504538;28;2958;-73
2022/12/06 01:38:45;;;;;;;;;;;;;;;1.56;100.00;95822.22;10503230;28;3009;-68
2022/12/06 01:43:49;;;;;;;;;;;;;;;1.46;100.00;95819.22;10497096;28;3544;-70
2022/12/06 01:48:52;;;;;;;;;;;;;;;1.41;100.00;95813.78;10515980;28;3149;-72
2022/12/06 01:53:55;;;;;;;;;;;;;;;1.34;100.00;95816.47;10518008;28;3034;-68
2022/12/06 01:58:58;;;;;;;;;;;;;;;1.29;100.00;95818.94;10513483;28;3188;-73
2022/12/06 02:04:01;;;;;;;;;;;;;;;1.19;100.00;95817.78;10507399;28;3037;-69
2022/12/06 02:09:05;;;;;;;;;;;;;;;1.12;100.00;95801.94;10512970;28;3002;-68
2022/12/06 02:14:09;;;;;;;;;;;;;;;1.07;100.00;95799.91;10510117;28;3034;-71
2022/12/06 02:19:12;;;;;;;;;;;;;;;1.03;100.00;95797.94;10502079;28;3092;-73
2022/12/06 02:24:16;;;;;;;;;;;;;;;0.99;100.00;95797.53;10493277;28;2574;-69
2022/12/06 02:29:19;;;;;;;;;;;;;;;1.14;100.00;95785.84;10515966;28;3077;-70
2022/12/06 02:34:23;;;;;;;;;;;;;;;1.32;100.00;95770.81;10491936;28;3009;-69
2022/12/06 02:39:26;;;;;;;;;;;;;;;1.41;100.00;95782.00;10501023;28;2946;-67
2022/12/06 02:44:30;;;;;;;;;;;;;;;1.52;100.00;95775.16;10512981;28;3280;-70
2022/12/06 02:49:33;;;;;;;;;;;;;;;1.56;100.00;95776.34;10530526;28;2543;-74
2022/12/06 02:54:37;;;;;;;;;;;;;;;1.52;100.00;95773.31;10511726;28;2587;-68
2022/12/06 02:59:41;;;;;;;;;;;;;;;1.58;100.00;95769.81;10538804;28;3049;-68
2022/12/06 03:04:48;;;;;;;;;;;;;;;1.60;100.00;95765.13;10528091;28;3178;-67
2022/12/06 03:09:51;;;;;;;;;;;;;;;1.62;100.00;95760.41;10519140;28;3201;-69
2022/12/06 03:14:55;;;;;;;;;;;;;;;1.53;100.00;95761.72;10520336;28;2891;-68
2022/12/06 03:19:58;;;;;;;;;;;;;;;1.44;100.00;95760.34;10518379;28;3014;-67
2022/12/06 03:25:03;;;;;;;;;;;;;;;1.31;100.00;95755.16;10550323;27;3061;-68
2022/12/06 03:30:07;;;;;;;;;;;;;;;1.08;100.00;95755.72;10519681;28;2990;-71
2022/12/06 03:35:10;;;;;;;;;;;;;;;0.95;100.00;95766.41;10510187;28;3101;-74
2022/12/06 03:40:13;;;;;;;;;;;;;;;0.86;100.00;95768.50;10520110;28;2606;-72
2022/12/06 03:45:16;;;;;;;;;;;;;;;0.99;100.00;95770.25;10513645;28;3128;-70
2022/12/06 03:50:20;;;;;;;;;;;;;;;1.06;100.00;95765.72;10521874;28;2587;-68
2022/12/06 03:55:23;;;;;;;;;;;;;;;1.17;100.00;95766.88;10509581;28;3029;-68
2022/12/06 04:00:27;;;;;;;;;;;;;;;1.21;100.00;95770.72;10517911;28;3042;-67
2022/12/06 04:05:30;;;;;;;;;;;;;;;1.11;100.00;95760.59;10517648;28;3010;-69
2022/12/06 04:10:33;;;;;;;;;;;;;;;1.03;100.00;95761.69;10505877;28;2593;-68
2022/12/06 04:15:37;;;;;;;;;;;;;;;0.82;100.00;95754.06;10525340;28;2990;-69
2022/12/06 04:26:02;;;;;;;;;;;;;;;0.50;100.00;95747.94;10514701;28;3048;-68
2022/12/06 04:47:17;;;;;;;;;;;;;;;0.26;100.00;95745.00;10511054;28;3002;-68
2022/12/06 04:52:20;;;;;;;;;;;;;;;0.16;100.00;95741.19;10516635;28;3062;-70
2022/12/06 04:57:24;;;;;;;;;;;;;;;0.05;100.00;95742.63;10518886;28;3007;-67
2022/12/06 05:02:27;;;;;;;;;;;;;;;0.02;100.00;95736.97;10503872;28;3058;-69
2022/12/06 05:07:32;;;;;;;;;;;;;;;0.10;100.00;95749.94;10524730;28;3053;-69
2022/12/06 05:12:35;;;;;;;;;;;;;;;-0.01;100.00;95749.56;10531797;28;3103;-68
2022/12/06 05:17:39;;;;;;;;;;;;;;;-0.12;100.00;95739.66;10518090;28;3086;-68
2022/12/06 05:22:42;;;;;;;;;;;;;;;-0.18;100.00;95743.13;10508764;28;2995;-68
2022/12/06 05:27:46;;;;;;;;;;;;;;;-0.20;100.00;95745.13;10514499;28;2558;-68
2022/12/06 05:32:49;;;;;;;;;;;;;;;-0.13;100.00;95753.03;10509462;28;3033;-68
2022/12/06 05:37:59;;;;;;;;;;;;;;;-0.23;100.00;95756.13;10511095;28;3372;-71
2022/12/06 05:43:02;;;;;;;;;;;;;;;-0.22;100.00;95749.00;10514547;28;3055;-67
2022/12/06 05:48:05;;;;;;;;;;;;;;;-0.16;100.00;95746.34;10504987;28;2582;-68
2022/12/06 05:53:08;;;;;;;;;;;;;;;-0.17;100.00;95751.84;10513731;28;3066;-69
2022/12/06 05:58:12;;;;;;;;;;;;;;;-0.13;100.00;95745.94;10517105;28;3028;-68
2022/12/06 06:03:17;;;;;;;;;;;;;;;-0.18;100.00;95751.03;10517789;28;3007;-70
2022/12/06 06:08:21;;;;;;;;;;;;;;;-0.13;100.00;95738.00;10507781;28;2940;-66
2022/12/06 06:13:24;;;;;;;;;;;;;;;-0.13;100.00;95739.81;10508898;28;3038;-68
2022/12/06 06:18:27;;;;;;;;;;;;;;;-0.18;100.00;95743.13;10509663;28;3050;-73
2022/12/06 06:23:30;;;;;;;;;;;;;;;-0.04;100.00;95744.69;10490206;28;2653;-72
2022/12/06 06:28:34;;;;;;;;;;;;;;;0.10;100.00;95745.47;10504901;28;3009;-67
2022/12/06 06:33:37;;;;;;;;;;;;;;;0.28;100.00;95752.72;10509670;28;3136;-68
2022/12/06 06:38:40;;;;;;;;;;;;;;;0.40;100.00;95744.94;10507350;28;3040;-69
2022/12/06 06:43:43;;;;;;;;;;;;;;;0.42;100.00;95743.69;10513526;28;2949;-68
2022/12/06 06:48:47;;;;;;;;;;;;;;;0.55;100.00;95748.13;10504528;28;3066;-71
2022/12/06 06:53:49;;;;;;;;;;;1.40;99.90;;;0.70;100.00;95746.03;10512749;28;3101;-69
2022/12/06 06:58:53;;;;;;;;;;;;;;;0.76;100.00;95755.75;10510823;28;3102;-67
2022/12/06 07:03:56;;;;;;;;;;;1.70;99.90;;;0.89;100.00;95748.72;10506709;28;3021;-68
2022/12/06 07:09:08;;;;;;;;;;;1.80;99.90;;;1.02;100.00;95749.47;10509462;28;3149;-71
2022/12/06 07:14:12;;;;;;;;;;;;;;;1.16;100.00;95749.38;10513619;28;3027;-69
2022/12/06 07:19:14;;;;;;;;;;;2.00;99.90;;;1.21;100.00;95752.19;10496570;28;3035;-70
2022/12/06 07:24:18;;;;;;;;;;;;;;;1.35;100.00;95748.41;10518055;28;3129;-68
2022/12/06 07:29:21;;;;;;;;;;;2.20;99.90;;;1.26;100.00;95745.22;10512391;28;2744;-69
2022/12/06 07:34:23;;;;;;;;;;;2.30;99.90;;;1.14;100.00;95735.53;10518266;28;3022;-69
2022/12/06 07:39:26;;;;;;;;;;;2.30;99.90;;;0.94;100.00;95744.41;10524020;28;3054;-71
2022/12/06 07:50:02;;;;;;;;;;;2.00;99.90;;;0.78;100.00;95744.94;10523588;28;2523;-68
2022/12/06 07:55:05;;;;;;;;;;;2.00;99.90;;;0.82;100.00;95739.00;10517990;28;3041;-69
2022/12/06 08:00:08;;;;;;;;;;;1.80;99.90;;;0.87;100.00;95745.50;10521604;28;3015;-70
2022/12/06 08:05:11;;;;;;;;;;;1.90;99.90;;;0.99;100.00;95747.25;10514284;28;3042;-69
2022/12/06 08:10:14;;;;;;;;;;;1.90;99.90;;;1.23;100.00;95742.19;10512345;28;2587;-72
2022/12/06 08:15:17;;;;;;;;;;;2.10;99.90;;;1.65;100.00;95731.84;10518153;28;2778;-72
2022/12/06 08:20:20;;;;;;;;;;;2.40;99.90;;;2.22;100.00;95730.63;10541271;27;2758;-70
2022/12/06 08:25:23;;;;;;;;;;;2.30;99.90;;;2.54;100.00;95719.81;10513958;28;2701;-70
2022/12/06 08:30:27;;;;;;;;;;;3.10;99.90;;;2.65;100.00;95721.72;10514922;28;2789;-67
2022/12/06 08:35:30;;;;;;;;;;;;;;;2.98;100.00;95713.28;10521286;28;2714;-69
2022/12/06 08:40:33;;;;;;;;;;;3.50;99.90;;;3.17;100.00;95725.44;10510729;28;2770;-69
2022/12/06 08:45:36;;;;;;;;;;;3.80;99.90;;;3.22;100.00;95730.88;10515176;28;2735;-68
2022/12/06 08:50:39;;;;;;;;;;;4.00;99.90;;;3.44;100.00;95719.72;10521948;28;2528;-69
2022/12/06 08:55:43;;;;;;;;;;;4.10;99.90;;;3.44;100.00;95725.84;10521481;28;2763;-70
2022/12/06 09:00:46;;;;;;;;;;;4.20;99.90;;;3.59;100.00;95728.03;10513082;28;2685;-69
2022/12/06 09:05:53;;;;;;;;;;;4.20;99.90;;;3.63;100.00;95734.53;10521161;28;2818;-73
2022/12/06 09:10:57;;;;;;;;;;;;;;;4.03;100.00;95734.63;10511993;28;2795;-69
2022/12/06 09:16:00;;;;;;;;;;;;;;;4.13;100.00;95722.56;10515195;28;3133;-68
2022/12/06 09:21:04;;;;;;;;;;;;;;;3.98;100.00;95728.38;10502479;28;2750;-70
2022/12/06 09:26:07;;;;;;;;;;;;;;;4.25;100.00;95731.34;10510070;28;2849;-69
2022/12/06 09:31:10;;;;;;;;;;;;;;;4.07;100.00;95730.47;10513289;28;2704;-69
2022/12/06 09:36:13;;;;;;;;;;;;;;;3.86;100.00;95727.56;10512450;28;2783;-69
2022/12/06 09:41:17;;;;;;;;;;;;;;;4.13;100.00;95720.72;10512985;28;2733;-68
2022/12/06 09:46:20;;;;;;;;;;;;;;;4.22;100.00;95723.84;10507789;28;2741;-68
2022/12/06 09:51:23;;;;;;;;;;;;;;;4.26;100.00;95712.50;10517959;28;2765;-70
2022/12/06 09:56:27;;;;;;;;;;;;;;;4.21;100.00;95709.72;10516648;28;2913;-69
2022/12/06 10:01:30;;;;;;;;;;;;;;;4.38;100.00;95704.47;10516662;28;2772;-76
2022/12/06 10:06:33;;;;;;;;;;;;;;;4.44;100.00;95690.22;10467357;28;2745;-76
2022/12/06 10:11:36;;;;;;;;;;;5.20;99.90;;;4.43;100.00;95679.81;10462321;28;2725;-75
2022/12/06 10:16:39;;;;;;;;;;;5.30;99.90;;;4.43;100.00;95679.81;10465104;28;2801;-68
2022/12/06 10:21:42;;;;;;;;;;;5.30;99.90;;;4.47;100.00;95670.31;10473870;28;2714;-68
2022/12/06 10:26:45;;;;;;;;;;;5.30;99.90;;;4.66;100.00;95658.41;10468756;28;2761;-69
2022/12/06 10:31:47;;;;;;;;;;;5.40;99.90;;;4.62;100.00;95662.59;10472604;28;2783;-68
2022/12/06 10:36:50;;;;;;;;;;;5.50;99.90;;;4.57;100.00;95647.34;10460375;28;2776;-68
2022/12/06 10:41:54;;;;;;;;;;;5.60;99.90;;;4.75;100.00;95645.53;10471919;28;2812;-69
2022/12/06 10:47:06;;;;;;;;;;;5.70;99.90;;;4.78;100.00;95640.53;10467422;28;2740;-68
2022/12/06 10:52:09;;;;;;;;;;;5.70;99.90;;;4.57;100.00;95652.66;10467091;28;2914;-68
2022/12/06 10:57:11;;;;;;;;;;;5.80;99.90;;;4.62;100.00;95643.97;10458256;28;2762;-67
2022/12/06 11:02:14;;;;;;;;;;;5.70;99.90;;;4.64;100.00;95631.22;10466645;28;2795;-68
2022/12/06 11:07:20;;;;;;;;;;;5.60;99.90;;;4.74;100.00;95618.09;10487035;28;2805;-76
2022/12/06 11:12:23;;;;;;;;;;;5.60;99.90;;;4.66;100.00;95615.00;10515889;28;2707;-70
2022/12/06 11:17:33;;;;;;;;;;;5.60;99.90;;;4.71;100.00;95629.22;10511733;28;3167;-69
2022/12/06 11:22:36;;;;;;;;;;;5.60;99.90;;;4.68;100.00;95637.69;10526792;28;2669;-69
2022/12/06 11:27:39;;;;;;;;;;;5.60;99.90;;;4.74;100.00;95626.06;10523014;28;2747;-71
2022/12/06 11:32:42;;;;;;;;;;;5.60;99.90;;;4.65;100.00;95622.19;10523281;28;2654;-69
2022/12/06 11:37:45;;;;;;;;;;;5.60;99.90;;;4.70;100.00;95621.47;10525684;28;2741;-69
2022/12/06 11:42:52;;;;;;;;;;;5.50;99.90;;;4.62;100.00;95617.34;10516637;28;2743;-69
2022/12/06 11:47:55;;;;;;;;;;;5.50;99.90;;;4.58;100.00;95619.69;10529138;28;2835;-69
2022/12/06 11:53:01;;;;;;;;;;;5.50;99.90;;;4.31;100.00;95629.28;10516706;28;2764;-68
2022/12/06 11:58:04;;;;;;;;;;;5.30;99.90;;;4.30;100.00;95625.81;10520840;28;2841;-68
2022/12/06 12:03:07;;;;;;;;;;;5.20;99.90;;;4.34;100.00;95629.63;10522494;28;2815;-68
2022/12/06 12:08:11;;;;;;;;;;;5.20;99.90;;;4.18;100.00;95629.56;10526587;28;2876;-68
2022/12/06 12:18:35;;;;;;;;;;;5.20;99.90;;;4.30;100.00;95623.16;10511477;28;2703;-70
2022/12/06 12:23:38;;;;;;;;;;;5.20;99.90;;;4.26;100.00;95623.84;10524561;28;2803;-69
2022/12/06 12:28:41;;;;;;;;;;;5.20;99.90;;;4.18;100.00;95630.38;10521516;28;2701;-68
2022/12/06 12:33:44;;;;;;;;;;;5.20;99.90;;;4.18;100.00;95618.91;10520574;28;2817;-69
2022/12/06 12:38:47;;;;;;;;;;;5.10;99.90;;;4.17;100.00;95612.00;10519946;28;2781;-75
2022/12/06 12:43:51;;;;;;;;;;;5.20;99.90;;;4.00;100.00;95602.09;10524705;28;2774;-75
2022/12/06 12:49:14;;;;;;;;;;;5.10;99.90;;;4.20;100.00;95595.53;10521020;28;2784;-79
2022/12/06 12:54:17;;;;;;;;;;;5.10;99.90;;;4.03;100.00;95585.66;10521676;28;2773;-66
2022/12/06 12:59:20;;;;;;;;;;;5.10;99.90;;;4.10;100.00;95574.09;10509808;28;2758;-69
2022/12/06 13:04:22;;;;;;;;;;;5.10;99.90;;;4.16;100.00;95568.63;10514218;28;2751;-68
2022/12/06 13:09:25;;;;;;;;;;;5.10;99.90;;;4.26;100.00;95578.63;10522007;28;2688;-68
2022/12/06 13:14:32;;;;;;;;;;;5.20;99.90;;;4.16;100.00;95567.81;10507692;28;2800;-69
2022/12/06 13:19:35;;;;;;;;;;;5.20;99.90;;;4.14;100.00;95564.59;10506533;28;2734;-68
2022/12/06 13:24:38;;;;;;;;;;;5.30;99.90;;;4.06;100.00;95549.78;10506995;28;2731;-69
2022/12/06 13:29:40;;;;;;;;;;;5.10;99.90;;;4.09;100.00;95567.97;10506143;28;2800;-68
2022/12/06 13:34:44;;;;;;;;;;;5.10;99.90;;;4.21;100.00;95571.38;10506634;28;2732;-67
2022/12/06 13:39:47;;;;;;;;;;;5.10;99.90;;;4.04;100.00;95566.00;10502367;28;2744;-69
2022/12/06 13:44:49;;;;;;;;;;;5.10;99.90;;;4.10;100.00;95566.09;10505764;28;2771;-67
2022/12/06 13:49:52;;;;;;;;;;;5.10;99.90;;;4.18;100.00;95555.06;10507220;28;2766;-69
2022/12/06 13:54:55;;;;;;;;;;;5.10;99.90;;;4.16;100.00;95547.34;10509294;28;2786;-69
2022/12/06 13:59:58;;;;;;;;;;;5.10;99.90;;;4.20;100.00;95543.16;10508333;28;2694;-73
2022/12/06 14:05:01;;;;;;;;;;;5.10;99.90;;;4.21;100.00;95544.78;10521643;28;2892;-74
2022/12/06 14:10:04;;;;;;;;;;;5.10;99.90;;;4.24;100.00;95538.97;10510409;28;2813;-74
2022/12/06 14:15:07;;;;;;;;;;;5.60;99.90;;;4.22;100.00;95537.59;10513050;28;2734;-72
2022/12/06 14:20:10;;;;;;;;;;;5.30;99.90;;;4.14;100.00;95549.44;10508558;28;2782;-68
2022/12/06 14:25:13;;;;;;;;;;;5.20;99.90;;;4.21;100.00;95554.59;10510705;28;2752;-69
2022/12/06 14:30:15;;;;;;;;;;;5.20;99.90;;;4.10;100.00;95550.94;10490434;28;2942;-69
2022/12/06 14:35:26;;;;;;;;;;;5.20;99.90;;;3.90;100.00;95545.25;10509286;28;2752;-68
2022/12/06 14:42:59;;;;;;;;;;;5.00;99.90;;;4.00;100.00;95532.13;10502591;28;2836;-68
2022/12/06 14:45:52;;;;;;;;;;;5.00;99.90;;;4.00;100.00;95548.09;10511884;28;2756;-68
2022/12/06 14:50:55;;;;;;;;;;;5.00;99.90;;;3.83;100.00;95548.06;10507978;28;2750;-69
2022/12/06 14:55:58;;;;;;;;;;;4.90;99.90;;;3.74;100.00;95550.25;10504722;28;2765;-69
2022/12/06 15:01:01;;;;;;;;;;;4.90;99.90;;;3.65;100.00;95553.53;10504314;28;2831;-69
2022/12/06 15:06:03;;;;;;;;;;;4.70;99.90;;;3.49;100.00;95552.41;10515079;28;2774;-67
2022/12/06 15:11:06;;;;;;;;;;;4.70;99.90;;;3.46;100.00;95542.25;10510055;28;2716;-69
2022/12/06 15:16:09;;;;;;;;;;;4.60;99.90;;;3.38;100.00;95555.91;10510546;28;2730;-69
2022/12/06 15:21:13;;;;;;;;;;;4.50;99.90;;;3.30;100.00;95556.25;10510319;28;2715;-72
2022/12/06 15:26:16;;;;;;;;;;;4.60;99.90;;;3.16;100.00;95550.38;10510194;28;3020;-71
2022/12/06 15:31:18;;;;;;;;;;;4.40;99.90;;;3.12;100.00;95546.59;10511291;28;2689;-71
2022/12/06 15:36:21;;;;;;;;;;;4.30;99.90;;;3.04;100.00;95545.06;10507294;28;2765;-68
2022/12/06 15:41:24;;;;;;;;;;;4.20;99.90;;;2.97;100.00;95555.00;10507926;28;2758;-70
2022/12/06 15:46:27;;;;;;;;;;;4.10;99.90;;;2.91;100.00;95550.59;10496184;28;2714;-69
2022/12/06 15:51:29;;;;;;;;;;;4.10;99.90;;;2.93;100.00;95553.88;10509675;28;2773;-69
2022/12/06 15:56:32;;;;;;;;;;;4.00;99.90;;;2.89;100.00;95550.03;10515826;28;2788;-69
2022/12/06 16:01:35;;;;;;;;;;;4.00;99.90;;;2.88;100.00;95545.78;10510704;28;2811;-70
2022/12/06 16:06:45;;;;;;;;;;;4.00;99.90;;;2.89;100.00;95534.13;10493352;28;2806;-70
2022/12/06 16:11:47;;;;;;;;;;;4.00;99.90;;;2.91;100.00;95535.47;10505983;28;2727;-71
2022/12/06 16:16:50;;;;;;;;;;;4.00;99.90;;;2.86;100.00;95542.53;10521464;28;2808;-68
2022/12/06 16:21:53;;;;;;;;;;;3.90;99.90;;;2.92;100.00;95537.09;10529022;28;2837;-69
2022/12/06 16:26:56;;;;;;;;;;;4.00;99.90;;;2.79;100.00;95542.63;10532518;28;2748;-69
2022/12/06 16:31:59;;;;;;;;;;;3.90;99.90;;;2.74;100.00;95545.19;10528250;28;2835;-73
2022/12/06 16:37:02;;;;;;;;;;;3.80;99.90;;;2.76;100.00;95545.75;10526015;28;2741;-70
2022/12/06 16:42:05;;;;;;;;;;;3.80;99.90;;;2.75;100.00;95536.19;10516691;28;2758;-72
2022/12/06 16:47:08;;;;;;;;;;;3.90;99.90;;;2.77;100.00;95543.91;10518241;28;2699;-70
2022/12/06 16:52:11;;;;;;;;;;;3.80;99.90;;;2.74;100.00;95547.03;10517354;28;2824;-69
2022/12/06 16:57:13;;;;;;;;;;;3.90;99.90;;;2.77;100.00;95554.53;10504809;28;2785;-75
2022/12/06 17:02:16;;;;;;;;;;;3.80;99.90;;;2.79;100.00;95547.94;10519351;28;2995;-71
2022/12/06 17:07:19;;;;;;;;;;;3.90;99.90;;;2.78;100.00;95550.84;10528580;28;2665;-76
2022/12/06 17:12:22;;;;;;;;;;;3.80;99.90;;;2.88;100.00;95553.75;10530987;28;2715;-76
2022/12/06 17:17:28;;;;;;;;;;;3.90;99.90;;;2.79;100.00;95563.88;10532563;28;2885;-72
2022/12/06 17:22:30;;;;;;;;;;;3.90;99.90;;;2.78;100.00;95564.91;10508571;28;2753;-69
2022/12/06 17:27:33;;;;;;;;;;;3.90;99.90;;;2.75;100.00;95565.38;10526089;28;2717;-70
2022/12/06 17:32:36;;;;;;;;;;;3.80;99.90;;;2.76;100.00;95569.66;10521517;28;2764;-70
2022/12/06 17:37:38;;;;;;;;;;;3.90;99.90;;;2.74;100.00;95577.03;10523040;28;2780;-72
2022/12/06 17:42:59;;;;;;;;;;;3.80;99.90;;;2.76;100.00;95577.63;10517893;28;3162;-69
2022/12/06 17:48:02;;;;;;;;;;;3.80;99.90;;;2.64;100.00;95572.28;10525206;28;2690;-75
2022/12/06 17:53:05;;;;;;;;;;;3.80;99.90;;;2.83;100.00;95569.53;10525590;28;2797;-75
2022/12/06 17:58:08;;;;;;;;;;;4.00;99.90;;;2.87;100.00;95571.53;10530447;28;2817;-70
2022/12/06 18:03:11;;;;;;;;;;;3.90;99.90;;;2.81;100.00;95576.94;10507034;28;2838;-70
2022/12/06 18:08:14;;;;;;;;;;;3.90;99.90;;;2.89;100.00;95585.34;10521057;28;2721;-70
2022/12/06 18:13:20;;;;;;;;;;;3.90;99.90;;;2.85;100.00;95578.88;10516373;28;2830;-69
2022/12/06 18:18:22;;;;;;;;;;;4.40;99.90;;;2.88;100.00;95581.09;10527557;28;3035;-69
2022/12/06 18:23:25;;;;;;;;;;;3.90;99.90;;;2.79;100.00;95579.00;10524958;28;2678;-68
2022/12/06 18:28:28;;;;;;;;;;;3.90;99.90;;;2.83;100.00;95575.66;10518112;28;2802;-70
2022/12/06 18:33:31;;;;;;;;;;;3.90;99.90;;;2.77;100.00;95578.44;10526032;28;2757;-69
2022/12/06 18:38:33;;;;;;;;;;;3.80;99.90;;;2.78;100.00;95580.03;10523979;28;2811;-68
2022/12/06 18:43:36;;;;;;;;;;;3.80;99.90;;;2.78;100.00;95580.03;10533509;28;2728;-69
2022/12/06 18:48:38;;;;;;;;;;;3.80;99.90;;;2.76;100.00;95585.59;10519459;28;2808;-69
2022/12/06 18:53:41;;;;;;;;;;;3.80;99.90;;;2.66;100.00;95590.63;10519992;28;2758;-69
2022/12/06 18:58:45;;;;;;;;;;;3.80;99.90;;;2.75;100.00;95588.47;10523239;28;2776;-67
2022/12/06 19:03:49;;;;;;;;;;;4.00;99.90;;;2.88;100.00;95588.25;10502965;28;2909;-70
2022/12/06 19:08:55;;;;;;;;;;;3.80;99.90;;;2.88;100.00;95589.06;10523947;28;2658;-71
2022/12/06 19:13:57;;;;;;;;;;;3.90;99.90;;;2.78;100.00;95594.13;10514172;28;2799;-69
2022/12/06 19:19:00;;;;;;;;;;;3.90;99.90;;;2.70;100.00;95592.59;10511013;28;2780;-69
2022/12/06 19:24:03;;;;;;;;;;;3.80;99.90;;;2.75;100.00;95593.78;10518737;28;2837;-69
2022/12/06 19:29:06;;;;;;;;;;;3.80;99.90;;;2.68;100.00;95594.69;10523177;28;2775;-70
2022/12/06 19:34:09;;;;;;;;;;;3.80;99.90;;;2.70;100.00;95592.59;10531704;28;2858;-69
2022/12/06 19:39:12;;;;;;;;;;;3.80;99.90;;;2.77;100.00;95589.84;10519266;28;2758;-69
2022/12/06 19:44:15;;;;;;;;;;;3.90;99.90;;;2.84;100.00;95597.69;10533105;28;2762;-70
2022/12/06 19:49:18;;;;;;;;;;;3.80;99.90;;;2.80;100.00;95599.19;10520521;28;2752;-68
2022/12/06 19:54:21;;;;;;;;;;;3.90;99.90;;;2.76;100.00;95593.53;10524067;28;2630;-69
2022/12/06 19:59:28;;;;;;;;;;;3.80;99.90;;;2.72;100.00;95606.44;10509117;28;2768;-69
2022/12/06 20:04:31;;;;;;;;;;;3.80;99.90;;;2.77;100.00;95591.69;10493728;28;2705;-68
2022/12/06 20:09:33;;;;;;;;;;;3.80;99.90;;;2.75;100.00;95593.78;10471009;28;2902;-72
2022/12/06 20:14:36;;;;;;;;;;;3.80;99.90;;;2.71;100.00;95588.09;10476999;28;2753;-77
2022/12/06 20:19:41;;;;;;;;;;;3.80;99.90;;;2.80;100.00;95591.22;10469671;28;2708;-69
2022/12/06 20:24:45;;;;;;;;;;;3.80;99.90;;;2.81;100.00;95587.56;10470748;28;2704;-73
2022/12/06 20:29:48;;;;;;;;;;;3.80;99.90;;;3.06;100.00;95580.19;10471435;28;2830;-68
2022/12/06 20:34:51;;;;;;;;;;;4.00;99.90;;;3.01;100.00;95590.69;10470802;28;2750;-70
2022/12/06 20:39:54;;;;;;;;;;;4.10;99.90;;;3.06;100.00;95590.81;10468512;28;2764;-76
2022/12/06 20:44:57;;;;;;;;;;;4.10;99.90;;;2.92;100.00;95589.38;10465823;28;2748;-69
2022/12/06 20:50:00;;;;;;;;;;;4.00;99.90;;;2.87;100.00;95584.78;10470385;28;2786;-70
2022/12/06 20:55:03;;;;;;;;;;;3.90;99.90;;;2.89;100.00;95587.22;10471745;28;2809;-69
2022/12/06 21:00:06;;;;;;;;;;;3.90;99.90;;;2.89;100.00;95589.88;10471181;28;2718;-69
2022/12/06 21:05:19;;;;;;;;;;;3.90;99.90;;;2.70;100.00;95582.00;10502776;28;2732;-68
2022/12/06 21:10:22;;;;;;;;;;;3.80;99.90;;;2.69;100.00;95592.84;10514251;28;2769;-68
2022/12/06 21:15:25;;;;;;;;;;;3.70;99.90;;;2.37;100.00;95597.63;10512686;28;2711;-68
2022/12/06 21:20:28;;;;;;;;;;;3.60;99.90;;;2.38;100.00;95592.06;10515121;28;2779;-68
2022/12/06 21:25:30;;;;;;;;;;;3.50;99.90;;;2.48;100.00;95599.47;10518422;28;2760;-73
2022/12/06 21:30:33;;;;;;;;;;;3.60;99.90;;;2.42;100.00;95601.22;10512233;28;2754;-72
2022/12/06 21:35:36;;;;;;;;;;;3.50;99.90;;;2.37;100.00;95605.56;10511502;28;2774;-70
2022/12/06 21:40:39;;;;;;;;;;;3.50;99.90;;;2.40;100.00;95605.91;10513783;28;2765;-68
2022/12/06 21:45:42;;;;;;;;;;;3.50;99.90;;;2.29;100.00;95617.31;10515846;28;2796;-68
2022/12/06 21:50:47;;;;;;;;;;;3.40;99.90;;;2.37;100.00;95617.00;10510724;28;2725;-68
2022/12/06 21:55:50;;;;;;;;;;;3.40;99.90;;;2.36;100.00;95618.03;10515674;28;2717;-68
2022/12/06 22:00:55;;;;;;;;;;;3.40;99.90;;;2.42;100.00;95616.31;10514313;28;2714;-73
2022/12/06 22:05:58;;;;;;;;;;;3.50;99.90;;;2.33;100.00;95615.00;10514234;28;2772;-69
2022/12/06 22:11:01;;;;;;;;;;;3.40;99.90;;;2.36;100.00;95606.63;10509215;28;2895;-68
2022/12/06 22:16:04;;;;;;;;;;;3.40;99.90;;;2.36;100.00;95609.25;10509062;28;2717;-69
2022/12/06 22:21:06;;;;;;;;;;;3.40;99.90;;;2.32;100.00;95611.53;10501210;28;2732;-72
2022/12/06 22:26:15;;;;;;;;;;;3.40;99.90;;;2.26;100.00;95609.00;10502859;28;2701;-68
2022/12/06 22:31:18;;;;;;;;;;;3.40;99.90;;;2.16;100.00;95607.69;10500735;28;2726;-70
2022/12/06 22:36:21;;;;;;;;;;;3.30;99.90;;;2.26;100.00;95609.00;10524479;28;2756;-69
2022/12/06 22:41:24;;;;;;;;;;;3.30;99.90;;;2.29;100.00;95617.31;10513992;28;2772;-72
2022/12/06 22:46:27;;;;;;;;;;;3.30;99.90;;;2.11;100.00;95618.16;10526989;28;2710;-72
2022/12/06 22:51:30;;;;;;;;;;;3.30;99.90;;;2.12;100.00;95622.44;10505766;28;2840;-68
2022/12/06 22:56:33;;;;;;;;;;;3.30;99.90;;;2.08;100.00;95615.13;10530219;28;2913;-69
2022/12/06 23:01:36;;;;;;;;;;;3.30;99.90;;;1.98;100.00;95615.69;10516791;28;2721;-68
2022/12/06 23:06:38;;;;;;;;;;;3.10;99.90;;;1.95;100.00;95610.00;10516691;28;2726;-69
2022/12/06 23:11:42;;;;;;;;;;;3.10;99.90;;;1.87;100.00;95608.47;10526969;28;2902;-68
2022/12/06 23:16:44;;;;;;;;;;;3.00;99.90;;;1.77;100.00;95605.53;10531499;28;2697;-70
2022/12/06 23:21:47;;;;;;;;;;;2.90;99.90;;;1.89;100.00;95609.06;10527280;28;2733;-68
2022/12/06 23:26:50;;;;;;;;;;;2.90;99.90;;;1.86;100.00;95610.31;10526803;28;2776;-66
2022/12/06 23:31:59;;;;;;;;;;;2.90;99.90;;;1.77;100.00;95609.00;10526678;28;2874;-68
2022/12/06 23:37:02;;;;;;;;;;;2.90;99.90;;;1.90;100.00;95610.66;10524299;28;2826;-67
2022/12/06 23:42:05;;;;;;;;;;;2.90;99.90;;;1.96;100.00;95609.78;10504669;28;2887;-68
2022/12/06 23:47:07;;;;;;;;;;;3.00;99.90;;;2.00;100.00;95610.97;10518345;28;2759;-67
2022/12/06 23:52:10;;;;;;;;;;;3.10;99.90;;;1.98;100.00;95612.22;10511496;28;3055;-67
2022/12/06 23:57:13;;;;;;;;;;;3.10;99.90;;;1.97;100.00;95614.03;10525462;28;2688;-67
